ENOL

Ørland Airport

Ørland, Norway
METAR ENOL 201420Z 34009KT 9999 FEW020 SCT100 18/13 Q1012 NOSIG
Observed Flight Rules
Jul-20 @ 14:20 UTC (16 minutes ago) Visual Flight Rules
Wind Visibility Clouds
340° at 9 knots 10,000+ meters
  • Few at 2,000' AGL
  • Scattered at 10,000' AGL
Temperatures Readings
Current 18°C / 64°F
Dewpoint 13°C / 55°F
Humidity 73%
Altimeter 29.88" Hg
Pressure 1012 hPa
Elevation 7
METAR ENOL 201420Z 34009KT 9999 FEW020 SCT100 18/13 Q1012 NOSIG
Observed Flight Rules
Jul-20 @ 14:20 UTC
(16 minutes ago)
VFR
Wind Visibility
340° at 9 knots 10,000+ meters
Clouds
  • Few at 2,000' AGL
  • Scattered at 10,000' AGL
Temperature Dewpoint
18°C / 64°F 13°C / 55°F
Humidity Altimeter Pressure
73% 29.88" Hg 1012 hPa